sensor_id;sensor_type;location;lat;lon;timestamp;P1;durP1;ratioP1;P2;durP2;ratioP2
6947;SDS011;3513;47.664;9.162;2022-10-16T00:00:38;6.50;;;4.10;;
6947;SDS011;3513;47.664;9.162;2022-10-16T00:03:05;15.40;;;4.33;;
6947;SDS011;3513;47.664;9.162;2022-10-16T00:05:31;9.87;;;4.00;;
6947;SDS011;3513;47.664;9.162;2022-10-16T00:07:57;16.20;;;4.77;;
6947;SDS011;3513;47.664;9.162;2022-10-16T00:10:23;12.13;;;4.93;;
6947;SDS011;3513;47.664;9.162;2022-10-16T00:12:49;16.17;;;4.60;;
6947;SDS011;3513;47.664;9.162;2022-10-16T00:15:15;11.23;;;4.30;;
6947;SDS011;3513;47.664;9.162;2022-10-16T00:17:41;6.67;;;5.10;;
6947;SDS011;3513;47.664;9.162;2022-10-16T00:20:07;13.13;;;5.53;;
6947;SDS011;3513;47.664;9.162;2022-10-16T00:22:32;9.90;;;5.07;;
6947;SDS011;3513;47.664;9.162;2022-10-16T00:24:58;12.90;;;5.37;;
6947;SDS011;3513;47.664;9.162;2022-10-16T00:27:24;8.00;;;4.80;;
6947;SDS011;3513;47.664;9.162;2022-10-16T00:29:50;11.03;;;5.83;;
6947;SDS011;3513;47.664;9.162;2022-10-16T00:32:17;11.23;;;5.80;;
6947;SDS011;3513;47.664;9.162;2022-10-16T00:34:43;20.17;;;6.07;;
6947;SDS011;3513;47.664;9.162;2022-10-16T00:37:09;9.10;;;5.63;;
6947;SDS011;3513;47.664;9.162;2022-10-16T00:39:35;10.17;;;6.37;;
6947;SDS011;3513;47.664;9.162;2022-10-16T00:42:00;5.70;;;5.07;;
6947;SDS011;3513;47.664;9.162;2022-10-16T00:47:29;14.80;;;4.57;;
6947;SDS011;3513;47.664;9.162;2022-10-16T00:50:09;25.80;;;5.77;;
6947;SDS011;3513;47.664;9.162;2022-10-16T00:52:44;16.50;;;5.20;;
6947;SDS011;3513;47.664;9.162;2022-10-16T00:55:12;19.13;;;6.10;;
6947;SDS011;3513;47.664;9.162;2022-10-16T00:57:39;13.07;;;6.57;;
6947;SDS011;3513;47.664;9.162;2022-10-16T01:00:06;15.50;;;4.73;;
6947;SDS011;3513;47.664;9.162;2022-10-16T01:02:34;9.70;;;5.03;;
6947;SDS011;3513;47.664;9.162;2022-10-16T01:04:59;6.93;;;4.03;;
6947;SDS011;3513;47.664;9.162;2022-10-16T01:10:38;19.43;;;4.97;;
6947;SDS011;3513;47.664;9.162;2022-10-16T01:13:15;10.60;;;4.70;;
6947;SDS011;3513;47.664;9.162;2022-10-16T01:15:48;12.73;;;4.47;;
6947;SDS011;3513;47.664;9.162;2022-10-16T01:18:28;4.60;;;3.60;;
6947;SDS011;3513;47.664;9.162;2022-10-16T01:21:03;7.87;;;3.90;;
6947;SDS011;3513;47.664;9.162;2022-10-16T01:26:37;11.63;;;4.40;;
6947;SDS011;3513;47.664;9.162;2022-10-16T01:29:16;8.20;;;4.90;;
6947;SDS011;3513;47.664;9.162;2022-10-16T01:32:00;13.83;;;4.27;;
6947;SDS011;3513;47.664;9.162;2022-10-16T01:34:35;9.87;;;3.90;;
6947;SDS011;3513;47.664;9.162;2022-10-16T01:37:12;9.60;;;4.57;;
6947;SDS011;3513;47.664;9.162;2022-10-16T01:39:42;6.23;;;3.40;;
6947;SDS011;3513;47.664;9.162;2022-10-16T01:42:17;14.93;;;3.87;;
6947;SDS011;3513;47.664;9.162;2022-10-16T01:44:47;5.50;;;4.10;;
6947;SDS011;3513;47.664;9.162;2022-10-16T01:47:14;16.60;;;4.77;;
6947;SDS011;3513;47.664;9.162;2022-10-16T01:49:42;13.93;;;5.00;;
6947;SDS011;3513;47.664;9.162;2022-10-16T01:52:10;8.43;;;5.53;;
6947;SDS011;3513;47.664;9.162;2022-10-16T01:54:41;20.43;;;8.40;;
6947;SDS011;3513;47.664;9.162;2022-10-16T01:57:10;42.50;;;11.90;;
6947;SDS011;3513;47.664;9.162;2022-10-16T01:59:40;24.53;;;9.40;;
6947;SDS011;3513;47.664;9.162;2022-10-16T02:02:10;43.23;;;10.20;;
6947;SDS011;3513;47.664;9.162;2022-10-16T02:04:38;22.37;;;9.90;;
6947;SDS011;3513;47.664;9.162;2022-10-16T02:07:07;22.83;;;10.10;;
6947;SDS011;3513;47.664;9.162;2022-10-16T02:09:33;21.10;;;9.23;;
6947;SDS011;3513;47.664;9.162;2022-10-16T02:12:01;14.87;;;8.20;;
6947;SDS011;3513;47.664;9.162;2022-10-16T02:14:33;16.20;;;9.40;;
6947;SDS011;3513;47.664;9.162;2022-10-16T02:17:09;27.60;;;8.63;;
6947;SDS011;3513;47.664;9.162;2022-10-16T02:19:39;26.57;;;8.60;;
6947;SDS011;3513;47.664;9.162;2022-10-16T02:22:06;9.00;;;7.20;;
6947;SDS011;3513;47.664;9.162;2022-10-16T02:29:46;11.10;;;5.80;;
6947;SDS011;3513;47.664;9.162;2022-10-16T02:32:15;8.80;;;5.03;;
6947;SDS011;3513;47.664;9.162;2022-10-16T02:34:47;8.10;;;6.10;;
6947;SDS011;3513;47.664;9.162;2022-10-16T02:37:14;20.43;;;6.63;;
6947;SDS011;3513;47.664;9.162;2022-10-16T02:39:41;8.97;;;5.10;;
6947;SDS011;3513;47.664;9.162;2022-10-16T02:42:13;11.23;;;4.87;;
6947;SDS011;3513;47.664;9.162;2022-10-16T02:44:39;15.63;;;5.70;;
6947;SDS011;3513;47.664;9.162;2022-10-16T02:47:05;9.43;;;5.03;;
6947;SDS011;3513;47.664;9.162;2022-10-16T02:49:31;12.90;;;5.77;;
6947;SDS011;3513;47.664;9.162;2022-10-16T02:51:56;11.53;;;6.07;;
6947;SDS011;3513;47.664;9.162;2022-10-16T02:54:22;10.10;;;4.80;;
6947;SDS011;3513;47.664;9.162;2022-10-16T02:56:48;10.67;;;5.40;;
6947;SDS011;3513;47.664;9.162;2022-10-16T02:59:14;9.93;;;5.67;;
6947;SDS011;3513;47.664;9.162;2022-10-16T03:01:40;16.00;;;5.60;;
6947;SDS011;3513;47.664;9.162;2022-10-16T03:04:07;14.50;;;4.80;;
6947;SDS011;3513;47.664;9.162;2022-10-16T03:06:32;17.50;;;5.33;;
6947;SDS011;3513;47.664;9.162;2022-10-16T03:08:58;17.60;;;6.10;;
6947;SDS011;3513;47.664;9.162;2022-10-16T03:11:23;30.27;;;8.80;;
6947;SDS011;3513;47.664;9.162;2022-10-16T03:13:49;15.03;;;7.23;;
6947;SDS011;3513;47.664;9.162;2022-10-16T03:16:15;35.33;;;8.50;;
6947;SDS011;3513;47.664;9.162;2022-10-16T03:18:40;24.40;;;7.30;;
6947;SDS011;3513;47.664;9.162;2022-10-16T03:21:06;12.10;;;7.30;;
6947;SDS011;3513;47.664;9.162;2022-10-16T03:23:32;29.60;;;8.20;;
6947;SDS011;3513;47.664;9.162;2022-10-16T03:25:57;24.20;;;9.50;;
6947;SDS011;3513;47.664;9.162;2022-10-16T03:28:23;42.60;;;10.20;;
6947;SDS011;3513;47.664;9.162;2022-10-16T03:30:49;113.60;;;14.17;;
6947;SDS011;3513;47.664;9.162;2022-10-16T03:33:15;78.70;;;13.10;;
6947;SDS011;3513;47.664;9.162;2022-10-16T03:35:41;72.53;;;11.93;;
6947;SDS011;3513;47.664;9.162;2022-10-16T03:38:06;110.97;;;14.63;;
6947;SDS011;3513;47.664;9.162;2022-10-16T03:40:32;51.20;;;13.07;;
6947;SDS011;3513;47.664;9.162;2022-10-16T03:42:58;79.17;;;12.57;;
6947;SDS011;3513;47.664;9.162;2022-10-16T03:45:24;100.00;;;12.83;;
6947;SDS011;3513;47.664;9.162;2022-10-16T03:47:50;86.80;;;14.00;;
6947;SDS011;3513;47.664;9.162;2022-10-16T03:50:15;93.50;;;13.27;;
6947;SDS011;3513;47.664;9.162;2022-10-16T03:52:41;68.50;;;13.10;;
6947;SDS011;3513;47.664;9.162;2022-10-16T03:55:07;134.60;;;14.07;;
6947;SDS011;3513;47.664;9.162;2022-10-16T03:57:32;176.37;;;24.20;;
6947;SDS011;3513;47.664;9.162;2022-10-16T03:59:58;125.60;;;16.33;;
6947;SDS011;3513;47.664;9.162;2022-10-16T04:02:24;153.37;;;16.83;;
6947;SDS011;3513;47.664;9.162;2022-10-16T04:04:49;147.73;;;17.30;;
6947;SDS011;3513;47.664;9.162;2022-10-16T04:07:15;146.87;;;14.00;;
6947;SDS011;3513;47.664;9.162;2022-10-16T04:09:41;128.50;;;16.83;;
6947;SDS011;3513;47.664;9.162;2022-10-16T04:12:07;238.70;;;21.00;;
6947;SDS011;3513;47.664;9.162;2022-10-16T04:14:32;159.80;;;18.13;;
6947;SDS011;3513;47.664;9.162;2022-10-16T04:16:58;101.73;;;17.50;;
6947;SDS011;3513;47.664;9.162;2022-10-16T04:19:23;159.70;;;22.93;;
6947;SDS011;3513;47.664;9.162;2022-10-16T04:21:49;96.23;;;21.20;;
6947;SDS011;3513;47.664;9.162;2022-10-16T04:24:14;178.70;;;20.30;;
6947;SDS011;3513;47.664;9.162;2022-10-16T04:26:40;79.07;;;20.70;;
6947;SDS011;3513;47.664;9.162;2022-10-16T04:29:06;139.90;;;23.70;;
6947;SDS011;3513;47.664;9.162;2022-10-16T04:31:32;160.30;;;21.90;;
6947;SDS011;3513;47.664;9.162;2022-10-16T04:33:58;88.03;;;20.77;;
6947;SDS011;3513;47.664;9.162;2022-10-16T04:36:24;113.40;;;22.43;;
6947;SDS011;3513;47.664;9.162;2022-10-16T04:38:49;129.13;;;19.20;;
6947;SDS011;3513;47.664;9.162;2022-10-16T04:41:15;101.83;;;20.23;;
6947;SDS011;3513;47.664;9.162;2022-10-16T04:43:40;89.33;;;20.73;;
6947;SDS011;3513;47.664;9.162;2022-10-16T04:46:06;129.23;;;21.50;;
6947;SDS011;3513;47.664;9.162;2022-10-16T04:48:32;104.47;;;19.13;;
6947;SDS011;3513;47.664;9.162;2022-10-16T04:50:58;58.90;;;19.67;;
6947;SDS011;3513;47.664;9.162;2022-10-16T04:53:24;51.27;;;18.53;;
6947;SDS011;3513;47.664;9.162;2022-10-16T04:55:50;43.87;;;18.20;;
6947;SDS011;3513;47.664;9.162;2022-10-16T04:58:16;166.17;;;21.83;;
6947;SDS011;3513;47.664;9.162;2022-10-16T05:00:42;144.40;;;23.53;;
6947;SDS011;3513;47.664;9.162;2022-10-16T05:03:08;90.33;;;18.00;;
6947;SDS011;3513;47.664;9.162;2022-10-16T05:05:35;127.23;;;21.10;;
6947;SDS011;3513;47.664;9.162;2022-10-16T05:08:01;117.90;;;18.77;;
6947;SDS011;3513;47.664;9.162;2022-10-16T05:10:27;93.53;;;17.63;;
6947;SDS011;3513;47.664;9.162;2022-10-16T05:12:53;98.83;;;19.30;;
6947;SDS011;3513;47.664;9.162;2022-10-16T05:15:18;100.13;;;16.30;;
6947;SDS011;3513;47.664;9.162;2022-10-16T05:17:44;94.97;;;18.33;;
6947;SDS011;3513;47.664;9.162;2022-10-16T05:20:10;121.80;;;19.03;;
6947;SDS011;3513;47.664;9.162;2022-10-16T05:22:36;108.80;;;19.80;;
6947;SDS011;3513;47.664;9.162;2022-10-16T05:25:03;116.43;;;18.90;;
6947;SDS011;3513;47.664;9.162;2022-10-16T05:27:29;64.03;;;16.10;;
6947;SDS011;3513;47.664;9.162;2022-10-16T05:29:54;84.83;;;17.03;;
6947;SDS011;3513;47.664;9.162;2022-10-16T05:32:20;111.67;;;18.90;;
6947;SDS011;3513;47.664;9.162;2022-10-16T05:34:45;168.73;;;23.23;;
6947;SDS011;3513;47.664;9.162;2022-10-16T05:37:11;185.47;;;19.67;;
6947;SDS011;3513;47.664;9.162;2022-10-16T05:39:38;101.13;;;18.97;;
6947;SDS011;3513;47.664;9.162;2022-10-16T05:42:04;228.97;;;23.23;;
6947;SDS011;3513;47.664;9.162;2022-10-16T05:44:30;122.63;;;17.90;;
6947;SDS011;3513;47.664;9.162;2022-10-16T05:46:56;204.03;;;23.83;;
6947;SDS011;3513;47.664;9.162;2022-10-16T05:49:21;143.20;;;20.73;;
6947;SDS011;3513;47.664;9.162;2022-10-16T05:51:47;153.93;;;21.90;;
6947;SDS011;3513;47.664;9.162;2022-10-16T05:54:13;159.03;;;21.70;;
6947;SDS011;3513;47.664;9.162;2022-10-16T05:56:38;63.47;;;16.47;;
6947;SDS011;3513;47.664;9.162;2022-10-16T05:59:04;68.20;;;18.77;;
6947;SDS011;3513;47.664;9.162;2022-10-16T06:01:30;129.17;;;22.30;;
6947;SDS011;3513;47.664;9.162;2022-10-16T06:03:56;67.30;;;18.27;;
6947;SDS011;3513;47.664;9.162;2022-10-16T06:06:23;76.83;;;16.87;;
6947;SDS011;3513;47.664;9.162;2022-10-16T06:08:51;98.70;;;19.90;;
6947;SDS011;3513;47.664;9.162;2022-10-16T06:11:23;48.40;;;18.80;;
6947;SDS011;3513;47.664;9.162;2022-10-16T06:13:56;136.60;;;21.77;;
6947;SDS011;3513;47.664;9.162;2022-10-16T06:16:24;87.37;;;18.70;;
6947;SDS011;3513;47.664;9.162;2022-10-16T06:18:51;174.77;;;20.30;;
6947;SDS011;3513;47.664;9.162;2022-10-16T06:21:19;135.60;;;19.27;;
6947;SDS011;3513;47.664;9.162;2022-10-16T06:23:47;33.13;;;15.60;;
6947;SDS011;3513;47.664;9.162;2022-10-16T06:26:13;29.70;;;14.77;;
6947;SDS011;3513;47.664;9.162;2022-10-16T06:28:41;40.80;;;16.80;;
6947;SDS011;3513;47.664;9.162;2022-10-16T06:31:08;31.00;;;14.53;;
6947;SDS011;3513;47.664;9.162;2022-10-16T06:33:35;56.13;;;15.57;;
6947;SDS011;3513;47.664;9.162;2022-10-16T06:36:14;40.60;;;16.80;;
6947;SDS011;3513;47.664;9.162;2022-10-16T06:38:42;122.90;;;18.07;;
6947;SDS011;3513;47.664;9.162;2022-10-16T06:41:09;85.90;;;16.30;;
6947;SDS011;3513;47.664;9.162;2022-10-16T06:43:39;89.53;;;15.30;;
6947;SDS011;3513;47.664;9.162;2022-10-16T06:46:05;113.23;;;14.30;;
6947;SDS011;3513;47.664;9.162;2022-10-16T06:48:33;27.93;;;13.20;;
6947;SDS011;3513;47.664;9.162;2022-10-16T06:53:28;45.27;;;14.37;;
6947;SDS011;3513;47.664;9.162;2022-10-16T06:55:55;50.33;;;13.50;;
6947;SDS011;3513;47.664;9.162;2022-10-16T06:58:21;29.10;;;13.93;;
6947;SDS011;3513;47.664;9.162;2022-10-16T07:00:47;42.93;;;13.90;;
6947;SDS011;3513;47.664;9.162;2022-10-16T07:03:13;30.20;;;13.43;;
6947;SDS011;3513;47.664;9.162;2022-10-16T07:05:42;23.67;;;14.00;;
6947;SDS011;3513;47.664;9.162;2022-10-16T07:08:08;46.40;;;14.33;;
6947;SDS011;3513;47.664;9.162;2022-10-16T07:10:34;60.23;;;14.43;;
6947;SDS011;3513;47.664;9.162;2022-10-16T07:13:00;62.80;;;14.57;;
6947;SDS011;3513;47.664;9.162;2022-10-16T07:15:26;27.20;;;14.50;;
6947;SDS011;3513;47.664;9.162;2022-10-16T07:17:52;27.43;;;15.13;;
6947;SDS011;3513;47.664;9.162;2022-10-16T07:20:18;65.47;;;13.10;;
6947;SDS011;3513;47.664;9.162;2022-10-16T07:22:44;33.10;;;15.33;;
6947;SDS011;3513;47.664;9.162;2022-10-16T07:25:10;33.83;;;14.57;;
6947;SDS011;3513;47.664;9.162;2022-10-16T07:27:36;30.00;;;15.70;;
6947;SDS011;3513;47.664;9.162;2022-10-16T07:30:02;40.20;;;13.67;;
6947;SDS011;3513;47.664;9.162;2022-10-16T07:32:29;34.93;;;14.90;;
6947;SDS011;3513;47.664;9.162;2022-10-16T07:34:55;35.87;;;14.23;;
6947;SDS011;3513;47.664;9.162;2022-10-16T07:37:21;44.53;;;13.23;;
6947;SDS011;3513;47.664;9.162;2022-10-16T07:39:47;53.13;;;13.77;;
6947;SDS011;3513;47.664;9.162;2022-10-16T07:42:12;55.90;;;13.90;;
6947;SDS011;3513;47.664;9.162;2022-10-16T07:44:38;50.67;;;11.90;;
6947;SDS011;3513;47.664;9.162;2022-10-16T07:47:06;22.50;;;11.70;;
6947;SDS011;3513;47.664;9.162;2022-10-16T07:49:32;35.20;;;13.10;;
6947;SDS011;3513;47.664;9.162;2022-10-16T07:52:07;37.17;;;12.00;;
6947;SDS011;3513;47.664;9.162;2022-10-16T07:55:06;29.50;;;11.47;;
6947;SDS011;3513;47.664;9.162;2022-10-16T07:57:38;24.33;;;10.93;;
6947;SDS011;3513;47.664;9.162;2022-10-16T08:00:10;33.87;;;21.00;;
6947;SDS011;3513;47.664;9.162;2022-10-16T08:02:39;43.03;;;13.03;;
6947;SDS011;3513;47.664;9.162;2022-10-16T08:05:05;24.47;;;9.90;;
6947;SDS011;3513;47.664;9.162;2022-10-16T08:07:31;11.90;;;9.43;;
6947;SDS011;3513;47.664;9.162;2022-10-16T08:09:57;31.67;;;13.57;;
6947;SDS011;3513;47.664;9.162;2022-10-16T08:12:24;19.17;;;12.60;;
6947;SDS011;3513;47.664;9.162;2022-10-16T08:14:51;14.80;;;8.53;;
6947;SDS011;3513;47.664;9.162;2022-10-16T08:17:17;19.03;;;9.00;;
6947;SDS011;3513;47.664;9.162;2022-10-16T08:19:46;16.47;;;10.10;;
6947;SDS011;3513;47.664;9.162;2022-10-16T08:22:13;18.40;;;10.07;;
6947;SDS011;3513;47.664;9.162;2022-10-16T08:24:39;11.83;;;7.90;;
6947;SDS011;3513;47.664;9.162;2022-10-16T08:27:05;12.47;;;8.50;;
6947;SDS011;3513;47.664;9.162;2022-10-16T08:29:31;11.67;;;9.30;;
6947;SDS011;3513;47.664;9.162;2022-10-16T08:31:57;9.67;;;7.30;;
6947;SDS011;3513;47.664;9.162;2022-10-16T08:34:23;12.07;;;7.40;;
6947;SDS011;3513;47.664;9.162;2022-10-16T08:36:48;16.23;;;7.90;;
6947;SDS011;3513;47.664;9.162;2022-10-16T08:39:15;10.80;;;7.57;;
6947;SDS011;3513;47.664;9.162;2022-10-16T08:42:03;8.57;;;7.40;;
6947;SDS011;3513;47.664;9.162;2022-10-16T08:50:14;20.10;;;7.57;;
6947;SDS011;3513;47.664;9.162;2022-10-16T08:52:46;9.23;;;7.47;;
6947;SDS011;3513;47.664;9.162;2022-10-16T08:57:52;12.67;;;8.30;;
6947;SDS011;3513;47.664;9.162;2022-10-16T09:00:18;12.20;;;8.60;;
6947;SDS011;3513;47.664;9.162;2022-10-16T09:02:50;14.00;;;8.53;;
6947;SDS011;3513;47.664;9.162;2022-10-16T09:18:48;17.17;;;9.00;;
6947;SDS011;3513;47.664;9.162;2022-10-16T09:21:40;13.00;;;8.60;;
6947;SDS011;3513;47.664;9.162;2022-10-16T09:24:18;11.33;;;7.27;;
6947;SDS011;3513;47.664;9.162;2022-10-16T09:26:46;9.40;;;7.40;;
6947;SDS011;3513;47.664;9.162;2022-10-16T09:29:13;12.60;;;9.13;;
6947;SDS011;3513;47.664;9.162;2022-10-16T09:31:40;13.47;;;9.07;;
6947;SDS011;3513;47.664;9.162;2022-10-16T09:34:08;9.03;;;8.03;;
6947;SDS011;3513;47.664;9.162;2022-10-16T09:36:44;10.47;;;8.10;;
6947;SDS011;3513;47.664;9.162;2022-10-16T09:39:11;10.00;;;7.80;;
6947;SDS011;3513;47.664;9.162;2022-10-16T09:41:37;20.90;;;6.50;;
6947;SDS011;3513;47.664;9.162;2022-10-16T09:44:16;13.00;;;8.80;;
6947;SDS011;3513;47.664;9.162;2022-10-16T09:46:46;17.40;;;7.43;;
6947;SDS011;3513;47.664;9.162;2022-10-16T09:49:22;15.60;;;8.17;;
6947;SDS011;3513;47.664;9.162;2022-10-16T09:51:49;14.53;;;8.63;;
6947;SDS011;3513;47.664;9.162;2022-10-16T09:54:19;11.20;;;8.77;;
6947;SDS011;3513;47.664;9.162;2022-10-16T09:56:46;16.60;;;8.20;;
6947;SDS011;3513;47.664;9.162;2022-10-16T09:59:18;20.60;;;8.27;;
6947;SDS011;3513;47.664;9.162;2022-10-16T10:01:48;13.50;;;7.07;;
6947;SDS011;3513;47.664;9.162;2022-10-16T10:04:16;9.80;;;6.87;;
6947;SDS011;3513;47.664;9.162;2022-10-16T10:06:47;7.97;;;5.93;;
6947;SDS011;3513;47.664;9.162;2022-10-16T10:11:58;11.00;;;6.80;;
6947;SDS011;3513;47.664;9.162;2022-10-16T10:14:34;6.60;;;5.70;;
6947;SDS011;3513;47.664;9.162;2022-10-16T10:17:11;8.67;;;5.07;;
6947;SDS011;3513;47.664;9.162;2022-10-16T10:25:00;14.67;;;4.73;;
6947;SDS011;3513;47.664;9.162;2022-10-16T10:32:46;15.23;;;5.83;;
6947;SDS011;3513;47.664;9.162;2022-10-16T10:35:46;11.43;;;6.13;;
6947;SDS011;3513;47.664;9.162;2022-10-16T10:46:56;12.17;;;4.93;;
6947;SDS011;3513;47.664;9.162;2022-10-16T10:49:57;12.33;;;4.93;;
6947;SDS011;3513;47.664;9.162;2022-10-16T10:53:05;6.40;;;4.80;;
6947;SDS011;3513;47.664;9.162;2022-10-16T10:55:48;10.73;;;4.57;;
6947;SDS011;3513;47.664;9.162;2022-10-16T11:04:03;3.30;;;2.80;;
6947;SDS011;3513;47.664;9.162;2022-10-16T11:09:15;7.90;;;2.67;;
6947;SDS011;3513;47.664;9.162;2022-10-16T11:14:29;4.43;;;2.40;;
6947;SDS011;3513;47.664;9.162;2022-10-16T11:17:04;5.80;;;1.90;;
6947;SDS011;3513;47.664;9.162;2022-10-16T11:20:02;3.63;;;1.70;;
6947;SDS011;3513;47.664;9.162;2022-10-16T11:22:32;2.13;;;1.90;;
6947;SDS011;3513;47.664;9.162;2022-10-16T11:25:05;7.03;;;1.97;;
6947;SDS011;3513;47.664;9.162;2022-10-16T11:30:41;7.10;;;1.97;;
6947;SDS011;3513;47.664;9.162;2022-10-16T11:38:55;5.00;;;2.60;;
6947;SDS011;3513;47.664;9.162;2022-10-16T11:44:02;3.80;;;1.63;;
6947;SDS011;3513;47.664;9.162;2022-10-16T11:46:40;2.50;;;2.00;;
6947;SDS011;3513;47.664;9.162;2022-10-16T11:51:45;10.90;;;8.80;;
6947;SDS011;3513;47.664;9.162;2022-10-16T11:54:36;3.00;;;2.30;;
6947;SDS011;3513;47.664;9.162;2022-10-16T11:57:15;2.30;;;1.70;;
6947;SDS011;3513;47.664;9.162;2022-10-16T11:59:57;3.00;;;1.80;;
6947;SDS011;3513;47.664;9.162;2022-10-16T12:08:14;4.40;;;1.63;;
6947;SDS011;3513;47.664;9.162;2022-10-16T12:10:42;1.90;;;1.40;;
6947;SDS011;3513;47.664;9.162;2022-10-16T12:16:03;5.07;;;1.83;;
6947;SDS011;3513;47.664;9.162;2022-10-16T12:18:48;2.50;;;1.97;;
6947;SDS011;3513;47.664;9.162;2022-10-16T12:21:14;3.30;;;1.60;;
6947;SDS011;3513;47.664;9.162;2022-10-16T12:26:29;5.60;;;2.10;;
6947;SDS011;3513;47.664;9.162;2022-10-16T12:31:49;7.40;;;1.50;;
6947;SDS011;3513;47.664;9.162;2022-10-16T12:36:54;14.90;;;4.70;;
6947;SDS011;3513;47.664;9.162;2022-10-16T12:39:24;5.60;;;3.90;;
6947;SDS011;3513;47.664;9.162;2022-10-16T12:42:05;3.53;;;2.30;;
6947;SDS011;3513;47.664;9.162;2022-10-16T12:44:50;2.60;;;2.20;;
6947;SDS011;3513;47.664;9.162;2022-10-16T12:49:57;6.80;;;1.93;;
6947;SDS011;3513;47.664;9.162;2022-10-16T12:52:25;8.10;;;3.67;;
6947;SDS011;3513;47.664;9.162;2022-10-16T12:54:51;6.57;;;3.37;;
6947;SDS011;3513;47.664;9.162;2022-10-16T13:10:30;2.07;;;1.80;;
6947;SDS011;3513;47.664;9.162;2022-10-16T13:19:06;2.23;;;1.60;;
6947;SDS011;3513;47.664;9.162;2022-10-16T13:29:52;2.03;;;1.50;;
6947;SDS011;3513;47.664;9.162;2022-10-16T13:32:25;2.20;;;1.60;;
6947;SDS011;3513;47.664;9.162;2022-10-16T13:34:51;5.53;;;1.80;;
6947;SDS011;3513;47.664;9.162;2022-10-16T13:37:20;2.83;;;1.80;;
6947;SDS011;3513;47.664;9.162;2022-10-16T13:39:46;4.03;;;1.87;;
6947;SDS011;3513;47.664;9.162;2022-10-16T13:42:26;4.87;;;2.27;;
6947;SDS011;3513;47.664;9.162;2022-10-16T13:44:54;4.80;;;3.77;;
6947;SDS011;3513;47.664;9.162;2022-10-16T13:47:21;4.13;;;2.33;;
6947;SDS011;3513;47.664;9.162;2022-10-16T13:52:30;4.13;;;3.20;;
6947;SDS011;3513;47.664;9.162;2022-10-16T13:54:56;7.23;;;2.90;;
6947;SDS011;3513;47.664;9.162;2022-10-16T13:57:23;4.93;;;2.70;;
6947;SDS011;3513;47.664;9.162;2022-10-16T13:59:50;2.33;;;2.13;;
6947;SDS011;3513;47.664;9.162;2022-10-16T14:02:32;3.43;;;2.30;;
6947;SDS011;3513;47.664;9.162;2022-10-16T14:05:00;2.50;;;2.30;;
6947;SDS011;3513;47.664;9.162;2022-10-16T14:07:29;2.97;;;2.60;;
6947;SDS011;3513;47.664;9.162;2022-10-16T14:10:05;9.13;;;2.87;;
6947;SDS011;3513;47.664;9.162;2022-10-16T14:12:43;2.70;;;2.50;;
6947;SDS011;3513;47.664;9.162;2022-10-16T14:15:15;2.50;;;2.30;;
6947;SDS011;3513;47.664;9.162;2022-10-16T14:17:43;10.17;;;2.30;;
6947;SDS011;3513;47.664;9.162;2022-10-16T14:20:14;3.40;;;2.73;;
6947;SDS011;3513;47.664;9.162;2022-10-16T14:22:43;8.40;;;2.70;;
6947;SDS011;3513;47.664;9.162;2022-10-16T14:27:55;3.07;;;2.40;;
6947;SDS011;3513;47.664;9.162;2022-10-16T14:30:29;17.97;;;6.30;;
6947;SDS011;3513;47.664;9.162;2022-10-16T14:33:03;12.10;;;7.60;;
6947;SDS011;3513;47.664;9.162;2022-10-16T14:35:38;6.60;;;2.17;;
6947;SDS011;3513;47.664;9.162;2022-10-16T14:38:05;6.73;;;2.00;;
6947;SDS011;3513;47.664;9.162;2022-10-16T14:40:45;5.53;;;1.90;;
6947;SDS011;3513;47.664;9.162;2022-10-16T14:43:23;7.40;;;1.83;;
6947;SDS011;3513;47.664;9.162;2022-10-16T14:46:03;7.23;;;1.97;;
6947;SDS011;3513;47.664;9.162;2022-10-16T14:48:34;15.80;;;2.07;;
6947;SDS011;3513;47.664;9.162;2022-10-16T14:51:00;8.60;;;2.97;;
6947;SDS011;3513;47.664;9.162;2022-10-16T14:53:25;4.33;;;2.13;;
6947;SDS011;3513;47.664;9.162;2022-10-16T14:55:51;4.60;;;2.10;;
6947;SDS011;3513;47.664;9.162;2022-10-16T14:58:18;8.07;;;2.20;;
6947;SDS011;3513;47.664;9.162;2022-10-16T15:00:46;4.90;;;2.53;;
6947;SDS011;3513;47.664;9.162;2022-10-16T15:03:13;16.93;;;1.80;;
6947;SDS011;3513;47.664;9.162;2022-10-16T15:05:38;18.03;;;3.20;;
6947;SDS011;3513;47.664;9.162;2022-10-16T15:08:04;5.50;;;2.43;;
6947;SDS011;3513;47.664;9.162;2022-10-16T15:10:30;6.90;;;3.30;;
6947;SDS011;3513;47.664;9.162;2022-10-16T15:12:58;11.03;;;3.43;;
6947;SDS011;3513;47.664;9.162;2022-10-16T15:15:25;6.37;;;2.40;;
6947;SDS011;3513;47.664;9.162;2022-10-16T15:17:52;6.73;;;2.90;;
6947;SDS011;3513;47.664;9.162;2022-10-16T15:20:26;8.47;;;3.67;;
6947;SDS011;3513;47.664;9.162;2022-10-16T15:22:53;8.43;;;2.93;;
6947;SDS011;3513;47.664;9.162;2022-10-16T15:27:50;4.27;;;2.80;;
6947;SDS011;3513;47.664;9.162;2022-10-16T15:30:16;8.00;;;4.20;;
6947;SDS011;3513;47.664;9.162;2022-10-16T15:32:42;5.20;;;3.70;;
6947;SDS011;3513;47.664;9.162;2022-10-16T15:35:10;6.27;;;3.83;;
6947;SDS011;3513;47.664;9.162;2022-10-16T15:37:36;6.50;;;4.07;;
6947;SDS011;3513;47.664;9.162;2022-10-16T15:40:01;11.13;;;3.90;;
6947;SDS011;3513;47.664;9.162;2022-10-16T15:42:27;6.10;;;3.50;;
6947;SDS011;3513;47.664;9.162;2022-10-16T15:44:53;7.73;;;3.53;;
6947;SDS011;3513;47.664;9.162;2022-10-16T15:47:18;9.73;;;3.20;;
6947;SDS011;3513;47.664;9.162;2022-10-16T15:49:44;10.70;;;3.93;;
6947;SDS011;3513;47.664;9.162;2022-10-16T15:52:10;3.30;;;3.00;;
6947;SDS011;3513;47.664;9.162;2022-10-16T15:54:36;4.83;;;3.13;;
6947;SDS011;3513;47.664;9.162;2022-10-16T15:57:02;4.13;;;3.17;;
6947;SDS011;3513;47.664;9.162;2022-10-16T15:59:27;17.60;;;3.90;;
6947;SDS011;3513;47.664;9.162;2022-10-16T16:01:53;8.93;;;3.37;;
6947;SDS011;3513;47.664;9.162;2022-10-16T16:04:19;7.43;;;3.40;;
6947;SDS011;3513;47.664;9.162;2022-10-16T16:06:44;4.93;;;2.33;;
6947;SDS011;3513;47.664;9.162;2022-10-16T16:09:11;8.03;;;3.53;;
6947;SDS011;3513;47.664;9.162;2022-10-16T16:11:37;6.03;;;1.93;;
6947;SDS011;3513;47.664;9.162;2022-10-16T16:14:04;10.90;;;2.67;;
6947;SDS011;3513;47.664;9.162;2022-10-16T16:16:30;5.53;;;2.30;;
6947;SDS011;3513;47.664;9.162;2022-10-16T16:19:01;5.40;;;2.37;;
6947;SDS011;3513;47.664;9.162;2022-10-16T16:21:27;7.80;;;2.10;;
6947;SDS011;3513;47.664;9.162;2022-10-16T16:23:54;5.00;;;2.40;;
6947;SDS011;3513;47.664;9.162;2022-10-16T16:26:26;7.10;;;2.60;;
6947;SDS011;3513;47.664;9.162;2022-10-16T16:28:56;6.73;;;2.40;;
6947;SDS011;3513;47.664;9.162;2022-10-16T16:31:25;11.80;;;2.40;;
6947;SDS011;3513;47.664;9.162;2022-10-16T16:33:52;7.90;;;1.80;;
6947;SDS011;3513;47.664;9.162;2022-10-16T16:36:18;14.60;;;3.63;;
6947;SDS011;3513;47.664;9.162;2022-10-16T16:38:44;7.80;;;3.30;;
6947;SDS011;3513;47.664;9.162;2022-10-16T16:41:14;2.60;;;2.00;;
6947;SDS011;3513;47.664;9.162;2022-10-16T16:43:45;6.00;;;2.70;;
6947;SDS011;3513;47.664;9.162;2022-10-16T16:46:12;10.90;;;4.60;;
6947;SDS011;3513;47.664;9.162;2022-10-16T16:48:39;12.20;;;3.13;;
6947;SDS011;3513;47.664;9.162;2022-10-16T16:51:15;12.20;;;3.30;;
6947;SDS011;3513;47.664;9.162;2022-10-16T16:53:45;7.40;;;2.93;;
6947;SDS011;3513;47.664;9.162;2022-10-16T16:56:13;4.70;;;2.33;;
6947;SDS011;3513;47.664;9.162;2022-10-16T16:58:39;6.43;;;2.70;;
6947;SDS011;3513;47.664;9.162;2022-10-16T17:01:05;11.83;;;2.30;;
6947;SDS011;3513;47.664;9.162;2022-10-16T17:03:32;4.07;;;2.70;;
6947;SDS011;3513;47.664;9.162;2022-10-16T17:06:09;6.33;;;2.37;;
6947;SDS011;3513;47.664;9.162;2022-10-16T17:08:35;14.30;;;3.27;;
6947;SDS011;3513;47.664;9.162;2022-10-16T17:11:01;6.47;;;3.60;;
6947;SDS011;3513;47.664;9.162;2022-10-16T17:13:29;6.20;;;2.80;;
6947;SDS011;3513;47.664;9.162;2022-10-16T17:15:56;8.97;;;2.73;;
6947;SDS011;3513;47.664;9.162;2022-10-16T17:18:22;3.67;;;3.00;;
6947;SDS011;3513;47.664;9.162;2022-10-16T17:20:49;5.40;;;2.73;;
6947;SDS011;3513;47.664;9.162;2022-10-16T17:23:15;6.97;;;3.07;;
6947;SDS011;3513;47.664;9.162;2022-10-16T17:25:42;10.10;;;4.07;;
6947;SDS011;3513;47.664;9.162;2022-10-16T17:28:09;9.60;;;6.60;;
6947;SDS011;3513;47.664;9.162;2022-10-16T17:30:39;15.07;;;7.80;;